Portada
METAR-TAF:

METAR-TAF

Aeropuertos :

Meridian Regional Airport (Key Field)

Meridian, Misisipi, Estados Unidos

latitud: 32-20-17N, longitud: 088-44-52W, altitud: 90 m

Observación

El informe se hizo hace 43 minutos, a las 20:58 UTC
Viento 7 kt del norte
Temperatura 33°C
Humedad 46%
Presión 1015 hPa
Visibilidad: 16.1 km
Escasas nubes a una altura de 5000 ft
Cielo nuboso a una altura de 6500 ft

METAR: KMEI 052058Z 36007KT 10SM FEW050 BKN065 33/20 A2998 RMK AO2 SLP146 T03280200 58012

Hora: 16:41 (21:41 UTC)

Pronóstico

El informe se hizo hace 3 horas y 58 minutos, a las 17:43 UTC
Pronóstico válido del 05 a las 18 UTC al 06 a las 18 UTC
Viento 4 kt del norte-noroeste
Visibilidad: 10 km
Nubes dispersas a una altura de 3500 ft
Cielo nuboso a una altura de 8000 ft

TAF: KMEI 051743Z 0518/0618 34004KT P6SM SCT035 BKN080

Observaciones y pronósticos meteorológicos de más de 4000 aeropuertos (mensajes METAR y TAF).

Los puntos amarillos y rojos representan las estaciones disponibles.

Ponga el ratón en el punto deseado para ver el nombre de la estación.

Haga clic para ver las observaciones y los pronósticos meteorológicos.

Para cambiar el mapa : haga clic en los botones verdes con una cruz de color negro para hacer un zoom, en el botón verde con un guión para alejar o en las flechas verdes para mapas adyacentes.


METAR-TAF: